TimeEDT,TemperatureF,Dew PointF,Humidity,Sea Level PressureIn,VisibilityMPH,Wind Direction,Wind SpeedMPH,Gust SpeedMPH,PrecipitationIn,Events,Conditions,WindDirDegrees,DateUTC
12:56 AM,64.9,62.1,90,29.90,10.0,Calm,Calm,-,N/A,,Partly Cloudy,0,2012-09-30 04:56:00
1:56 AM,64.9,63.0,93,29.89,9.0,NE,4.6,-,N/A,,Partly Cloudy,50,2012-09-30 05:56:00
2:56 AM,64.0,62.1,93,29.89,8.0,NE,4.6,-,N/A,,Clear,40,2012-09-30 06:56:00
3:56 AM,64.0,62.1,93,29.88,9.0,NE,5.8,-,N/A,,Clear,50,2012-09-30 07:56:00
4:56 AM,62.1,61.0,96,29.88,7.0,ENE,3.5,-,N/A,,Clear,70,2012-09-30 08:56:00
5:56 AM,62.1,61.0,96,29.88,9.0,ENE,3.5,-,N/A,,Mostly Cloudy,60,2012-09-30 09:56:00
6:56 AM,62.1,60.1,93,29.88,10.0,ENE,6.9,-,N/A,,Partly Cloudy,60,2012-09-30 10:56:00
7:56 AM,62.1,60.1,93,29.90,10.0,ENE,10.4,18.4,N/A,,Mostly Cloudy,60,2012-09-30 11:56:00
8:56 AM,63.0,60.1,90,29.91,10.0,ENE,13.8,-,N/A,,Mostly Cloudy,60,2012-09-30 12:56:00
9:36 AM,64.4,60.8,88,29.92,10.0,ENE,8.1,-,N/A,,Scattered Clouds,70,2012-09-30 13:36:00
9:56 AM,64.9,60.1,84,29.91,10.0,ENE,11.5,-,N/A,,Clear,60,2012-09-30 13:56:00
10:56 AM,66.9,59.0,76,29.92,10.0,ENE,10.4,-,N/A,,Clear,70,2012-09-30 14:56:00
11:56 AM,69.1,57.9,68,29.91,10.0,East,4.6,-,N/A,,Mostly Cloudy,100,2012-09-30 15:56:00
12:56 PM,72.0,57.0,59,29.90,10.0,Variable,4.6,-,N/A,,Partly Cloudy,0,2012-09-30 16:56:00
1:56 PM,72.0,57.9,61,29.88,10.0,Calm,Calm,-,N/A,,Clear,0,2012-09-30 17:56:00
2:31 PM,71.6,57.2,60,29.88,10.0,Calm,Calm,-,N/A,,Mostly Cloudy,0,2012-09-30 18:31:00
2:40 PM,71.6,57.2,60,29.88,10.0,East,4.6,-,N/A,,Mostly Cloudy,100,2012-09-30 18:40:00
2:56 PM,73.0,57.9,59,29.85,10.0,East,8.1,-,N/A,,Overcast,90,2012-09-30 18:56:00
4:56 PM,72.0,59.0,64,29.83,10.0,ESE,4.6,-,N/A,,Overcast,110,2012-09-30 20:56:00
5:56 PM,71.1,60.1,68,29.83,10.0,SE,4.6,-,N/A,,Overcast,130,2012-09-30 21:56:00
6:39 PM,69.8,60.8,73,29.85,10.0,Calm,Calm,-,N/A,,Overcast,0,2012-09-30 22:39:00
6:56 PM,70.0,61.0,73,29.84,10.0,Calm,Calm,-,N/A,,Overcast,0,2012-09-30 22:56:00
7:53 PM,66.2,62.6,88,29.86,10.0,Calm,Calm,-,0.01,Rain,Light Rain,0,2012-09-30 23:53:00
9:37 PM,64.4,62.6,94,29.87,5.0,East,4.6,-,0.03,Rain,Rain,80,2012-10-01 01:37:00
9:56 PM,64.9,64.0,97,29.85,6.0,East,3.5,-,0.05,Rain,Light Rain,90,2012-10-01 01:56:00
10:16 PM,64.4,64.4,100,29.87,4.0,ENE,3.5,-,0.03,Rain,Rain,70,2012-10-01 02:16:00
10:23 PM,64.4,64.4,100,29.87,4.0,ENE,4.6,-,0.04,Rain,Rain,70,2012-10-01 02:23:00
10:56 PM,66.0,64.0,93,29.85,4.0,East,5.8,-,0.08,Rain,Light Rain,90,2012-10-01 02:56:00
11:05 PM,66.2,64.4,94,29.87,5.0,East,5.8,-,0.00,Rain,Light Rain,90,2012-10-01 03:05:00